Time;durP1;ratioP1;P1;durP2;ratioP2;P2;SDS_P1;SDS_P2;PMS_P1;PMS_P2;Temp;Humidity;BMP_temperature;BMP_pressure;BME280_temperature;BME280_humidity;BME280_pressure;Samples;Min_cycle;Max_cycle;Signal;HPM_P1;HPM_P2
2023/07/19 00:00:42;;;;;;;0.00;0.00;;;21.90;99.90;;;;;;5040197;28;20028;-75
2023/07/19 00:03:07;;;;;;;0.30;0.30;;;22.50;99.90;;;;;;5042094;28;20107;-85
2023/07/19 00:05:34;;;;;;;0.10;0.10;;;22.90;99.90;;;;;;5040818;28;20233;-75
2023/07/19 00:08:02;;;;;;;0.00;0.00;;;23.20;99.90;;;;;;5041863;28;20013;-75
2023/07/19 00:10:28;;;;;;;0.10;0.10;;;23.50;99.90;;;;;;5041727;28;20027;-79
2023/07/19 00:12:53;;;;;;;0.03;0.03;;;23.60;99.90;;;;;;5040921;28;20052;-82
2023/07/19 00:15:19;;;;;;;0.10;0.10;;;23.90;99.90;;;;;;5042210;28;20047;-75
2023/07/19 00:17:45;;;;;;;0.88;0.88;;;24.20;99.90;;;;;;5041714;28;20017;-75
2023/07/19 00:20:11;;;;;;;0.20;0.20;;;24.10;99.90;;;;;;5041242;28;20078;-75
2023/07/19 00:22:41;;;;;;;0.10;0.10;;;24.20;99.90;;;;;;5041486;28;20530;-85
2023/07/19 00:25:07;;;;;;;0.10;0.10;;;24.50;99.90;;;;;;5041796;28;20040;-75
2023/07/19 00:27:33;;;;;;;0.10;0.10;;;24.50;99.90;;;;;;5041537;28;20029;-76
2023/07/19 00:29:59;;;;;;;0.10;0.10;;;24.40;99.90;;;;;;5041488;28;20012;-82
2023/07/19 00:32:24;;;;;;;9.13;8.57;;;24.40;99.90;;;;;;5041817;28;20024;-76
2023/07/19 00:34:50;;;;;;;0.10;0.10;;;24.30;99.90;;;;;;5040392;28;20025;-77
2023/07/19 00:37:16;;;;;;;0.10;0.10;;;24.90;99.90;;;;;;5040633;28;20072;-75
2023/07/19 00:39:42;;;;;;;0.10;0.10;;;24.30;99.90;;;;;;5041343;28;20021;-76
2023/07/19 00:42:08;;;;;;;0.10;0.10;;;24.30;99.90;;;;;;5041789;28;20691;-74
2023/07/19 00:44:34;;;;;;;0.10;0.10;;;24.30;99.90;;;;;;5045453;28;20033;-80
2023/07/19 00:47:02;;;;;;;0.10;0.10;;;23.80;99.90;;;;;;5041742;28;20086;-75
2023/07/19 00:49:30;;;;;;;0.10;0.10;;;23.50;99.90;;;;;;5041993;28;20017;-76
2023/07/19 00:51:58;;;;;;;0.20;0.20;;;22.80;99.90;;;;;;5041810;28;20036;-76
2023/07/19 00:54:24;;;;;;;0.10;0.10;;;22.50;99.90;;;;;;5040029;28;20055;-81
2023/07/19 00:56:50;;;;;;;0.10;0.10;;;22.70;99.90;;;;;;5041002;28;20053;-77
2023/07/19 00:59:18;;;;;;;0.10;0.10;;;22.90;99.90;;;;;;5041182;28;20408;-76
2023/07/19 01:01:44;;;;;;;0.10;0.10;;;23.10;99.90;;;;;;5041763;28;20060;-84
2023/07/19 01:04:10;;;;;;;0.05;0.05;;;23.40;99.90;;;;;;5041587;28;20595;-76
2023/07/19 01:06:36;;;;;;;4.63;1.33;;;24.00;99.90;;;;;;5040881;28;20183;-81
2023/07/19 01:09:03;;;;;;;0.00;0.00;;;24.00;99.90;;;;;;5040901;28;20795;-79
2023/07/19 01:11:29;;;;;;;0.47;0.47;;;24.20;99.90;;;;;;5040778;28;20032;-74
2023/07/19 01:13:55;;;;;;;0.10;0.10;;;24.30;99.90;;;;;;5041159;28;20013;-81
2023/07/19 01:16:21;;;;;;;0.05;0.05;;;24.50;99.90;;;;;;5042092;28;20021;-84
2023/07/19 01:18:47;;;;;;;0.20;0.20;;;24.40;99.90;;;;;;5040868;28;20025;-79
2023/07/19 01:21:12;;;;;;;0.10;0.10;;;23.70;99.90;;;;;;5041111;28;20060;-75
2023/07/19 01:23:39;;;;;;;1.70;1.67;;;23.70;99.90;;;;;;5043289;28;20667;-76
2023/07/19 01:26:05;;;;;;;0.10;0.10;;;23.90;99.90;;;;;;5043856;28;20033;-77
2023/07/19 01:28:31;;;;;;;0.15;0.15;;;24.00;99.90;;;;;;5046690;28;20112;-80
2023/07/19 01:30:57;;;;;;;0.20;0.20;;;23.90;99.90;;;;;;5046211;28;20032;-80
2023/07/19 01:33:23;;;;;;;0.10;0.10;;;24.10;99.90;;;;;;5050459;28;20032;-79
2023/07/19 01:35:49;;;;;;;0.77;0.65;;;24.20;99.90;;;;;;5046460;28;20526;-76
2023/07/19 01:38:15;;;;;;;0.10;0.10;;;24.30;99.90;;;;;;5043225;28;20059;-76
2023/07/19 01:40:40;;;;;;;0.10;0.10;;;24.30;99.90;;;;;;5047886;28;20060;-77
2023/07/19 01:43:06;;;;;;;0.10;0.10;;;24.30;99.90;;;;;;5046406;28;20024;-82
2023/07/19 01:45:32;;;;;;;0.10;0.10;;;24.60;99.90;;;;;;5044880;28;20100;-77
2023/07/19 01:47:58;;;;;;;0.03;0.03;;;24.30;99.90;;;;;;5043219;28;20659;-76
2023/07/19 01:50:23;;;;;;;0.30;0.30;;;24.40;99.90;;;;;;5042165;28;20017;-85
2023/07/19 01:52:50;;;;;;;1.05;0.55;;;23.90;99.90;;;;;;5041926;28;20048;-74
2023/07/19 01:55:15;;;;;;;0.10;0.10;;;23.90;99.90;;;;;;5039422;28;20059;-80
2023/07/19 01:57:42;;;;;;;0.10;0.10;;;24.00;99.90;;;;;;5040562;28;20068;-77
2023/07/19 02:00:08;;;;;;;0.10;0.10;;;23.90;99.90;;;;;;5039960;28;20083;-81
2023/07/19 02:02:34;;;;;;;0.10;0.10;;;24.10;99.90;;;;;;5040236;28;20025;-81
2023/07/19 02:05:00;;;;;;;0.03;0.03;;;24.10;99.90;;;;;;5039820;28;20082;-79
2023/07/19 02:07:25;;;;;;;0.10;0.10;;;24.20;99.90;;;;;;5040017;28;20025;-75
2023/07/19 02:09:51;;;;;;;0.10;0.10;;;24.30;99.90;;;;;;5040274;28;20017;-82
2023/07/19 02:12:17;;;;;;;0.10;0.10;;;24.30;99.90;;;;;;5039977;28;20057;-74
2023/07/19 02:14:42;;;;;;;1.48;1.42;;;24.30;99.90;;;;;;5040299;28;20013;-75
2023/07/19 02:17:09;;;;;;;0.15;0.15;;;23.90;99.90;;;;;;5039685;28;20017;-83
2023/07/19 02:19:35;;;;;;;0.10;0.10;;;23.40;99.90;;;;;;5037775;28;20021;-82
2023/07/19 02:22:01;;;;;;;0.00;0.00;;;23.50;99.90;;;;;;5045793;28;20655;-77
2023/07/19 02:24:32;;;;;;;0.85;0.85;;;23.40;99.90;;;;;;5042346;28;20080;-84
2023/07/19 02:26:58;;;;;;;1.65;1.55;;;22.90;99.90;;;;;;5043485;28;20025;-78
2023/07/19 02:29:24;;;;;;;0.10;0.10;;;23.00;99.90;;;;;;5045193;28;20005;-90
2023/07/19 02:31:52;;;;;;;4.97;4.72;;;23.20;99.90;;;;;;5032826;28;20029;-76
2023/07/19 02:34:21;;;;;;;0.10;0.10;;;23.50;99.90;;;;;;5027149;28;20018;-82
2023/07/19 02:36:48;;;;;;;0.10;0.10;;;23.50;99.90;;;;;;5041270;28;20075;-80
2023/07/19 02:39:14;;;;;;;0.10;0.10;;;23.50;99.90;;;;;;5046100;28;20012;-75
2023/07/19 02:41:41;;;;;;;0.10;0.10;;;23.10;99.90;;;;;;5053614;28;20552;-74
2023/07/19 02:44:07;;;;;;;0.20;0.20;;;22.50;99.90;;;;;;5037373;28;20052;-85
2023/07/19 02:46:32;;;;;;;0.10;0.10;;;22.10;99.90;;;;;;5022755;28;20033;-81
2023/07/19 02:48:58;;;;;;;0.10;0.10;;;21.70;99.90;;;;;;5021252;28;20093;-75
2023/07/19 02:51:24;;;;;;;0.10;0.10;;;21.20;99.90;;;;;;5022874;28;20637;-76
2023/07/19 02:53:50;;;;;;;0.45;0.45;;;20.70;99.90;;;;;;5038630;28;20032;-74
2023/07/19 02:56:15;;;;;;;0.10;0.10;;;19.80;99.90;;;;;;5038801;28;20029;-86
2023/07/19 02:58:42;;;;;;;1.38;1.38;;;20.30;99.90;;;;;;5042498;28;20033;-81
2023/07/19 03:01:08;;;;;;;0.10;0.10;;;20.10;99.90;;;;;;5039002;28;20024;-78
2023/07/19 03:03:33;;;;;;;0.10;0.10;;;19.90;99.90;;;;;;5039903;28;20022;-74
2023/07/19 03:06:02;;;;;;;10.98;2.38;;;21.30;99.90;;;;;;5040225;28;20025;-84
2023/07/19 03:08:29;;;;;;;0.10;0.10;;;19.80;99.90;;;;;;5040753;28;20350;-76
2023/07/19 03:10:54;;;;;;;2.30;2.20;;;19.70;99.90;;;;;;5037979;28;20051;-81
2023/07/19 03:13:21;;;;;;;1.75;1.65;;;19.70;99.90;;;;;;5039461;28;20013;-78
2023/07/19 03:15:47;;;;;;;0.10;0.10;;;20.50;99.90;;;;;;5041574;28;20033;-80
2023/07/19 03:18:13;;;;;;;0.10;0.10;;;20.70;99.90;;;;;;5039055;28;20100;-78
2023/07/19 03:20:39;;;;;;;0.03;0.03;;;20.40;99.90;;;;;;5038885;28;20013;-77
2023/07/19 03:23:05;;;;;;;0.10;0.10;;;20.70;99.90;;;;;;5039030;28;20021;-75
2023/07/19 03:25:31;;;;;;;0.20;0.20;;;21.30;99.90;;;;;;5039125;28;20033;-76
2023/07/19 03:27:57;;;;;;;0.13;0.13;;;21.20;99.90;;;;;;5038515;28;20700;-74
2023/07/19 03:30:24;;;;;;;0.10;0.10;;;21.80;99.90;;;;;;5039942;28;20021;-74
2023/07/19 03:32:51;;;;;;;0.10;0.10;;;21.20;99.90;;;;;;5039029;28;20032;-79
2023/07/19 03:35:18;;;;;;;0.10;0.10;;;17.70;99.90;;;;;;5039114;28;20050;-80
2023/07/19 03:37:44;;;;;;;0.10;0.10;;;20.30;99.90;;;;;;5043401;28;20013;-75
2023/07/19 03:40:17;;;;;;;0.10;0.10;;;20.60;99.90;;;;;;5043204;28;20017;-75
2023/07/19 03:42:42;;;;;;;0.10;0.10;;;20.40;99.90;;;;;;5042948;28;20044;-83
2023/07/19 03:45:09;;;;;;;0.10;0.10;;;;;;;;;;5042515;28;20087;-76
2023/07/19 03:47:34;;;;;;;14.63;13.43;;;20.30;99.90;;;;;;5042513;28;20033;-84
2023/07/19 03:50:00;;;;;;;0.10;0.10;;;20.90;99.90;;;;;;5042977;28;20501;-82
2023/07/19 03:52:26;;;;;;;0.10;0.10;;;21.30;99.90;;;;;;5040968;28;20586;-76
2023/07/19 03:54:54;;;;;;;0.10;0.10;;;20.30;99.90;;;;;;5042577;28;20033;-80
2023/07/19 03:57:20;;;;;;;0.20;0.20;;;20.80;99.90;;;;;;5041707;28;20096;-77
2023/07/19 03:59:46;;;;;;;0.10;0.10;;;21.30;99.90;;;;;;5041013;28;20021;-78
2023/07/19 04:02:12;;;;;;;2.97;2.20;;;22.00;99.90;;;;;;5042275;28;20693;-78
2023/07/19 04:04:38;;;;;;;0.20;0.20;;;22.60;99.90;;;;;;5043216;28;20529;-75
2023/07/19 04:07:04;;;;;;;0.10;0.10;;;22.40;99.90;;;;;;5044652;28;20048;-84
2023/07/19 04:09:29;;;;;;;0.10;0.10;;;22.00;99.90;;;;;;5042687;28;20013;-79
2023/07/19 04:11:55;;;;;;;0.10;0.10;;;22.10;99.90;;;;;;5040982;28;20036;-87
2023/07/19 04:14:21;;;;;;;0.10;0.10;;;21.70;99.90;;;;;;5042609;28;20021;-76
2023/07/19 04:16:47;;;;;;;0.15;0.15;;;21.50;99.90;;;;;;5043149;28;20018;-86
2023/07/19 04:19:12;;;;;;;0.20;0.20;;;21.90;99.90;;;;;;5042374;28;20036;-78
2023/07/19 04:21:38;;;;;;;0.10;0.10;;;21.60;99.90;;;;;;5042029;28;20048;-88
2023/07/19 04:24:04;;;;;;;0.10;0.10;;;21.50;99.90;;;;;;5042487;28;20100;-82
2023/07/19 04:26:30;;;;;;;0.50;0.50;;;22.00;99.90;;;;;;5042100;28;20108;-89
2023/07/19 04:28:57;;;;;;;0.10;0.10;;;22.40;99.90;;;;;;5040862;28;20107;-82
2023/07/19 04:31:23;;;;;;;0.00;0.00;;;22.70;99.90;;;;;;5042382;28;20029;-81
2023/07/19 04:33:50;;;;;;;0.85;0.85;;;22.70;99.90;;;;;;5041694;28;20036;-77
2023/07/19 04:36:16;;;;;;;1.08;1.08;;;22.90;99.90;;;;;;5042493;28;20064;-80
2023/07/19 04:38:42;;;;;;;0.10;0.10;;;23.10;99.90;;;;;;5041732;28;20017;-77
2023/07/19 04:41:08;;;;;;;1.40;1.30;;;23.30;99.90;;;;;;5041497;28;20575;-79
2023/07/19 04:43:35;;;;;;;0.10;0.10;;;23.20;99.90;;;;;;5041593;28;20086;-76
2023/07/19 04:46:01;;;;;;;1.25;1.15;;;23.50;99.90;;;;;;5041366;28;20031;-75
2023/07/19 04:48:26;;;;;;;0.28;0.28;;;23.50;99.90;;;;;;5040038;28;20120;-79
2023/07/19 04:50:56;;;;;;;0.63;0.63;;;23.70;99.90;;;;;;5040910;28;20677;-81
2023/07/19 04:53:24;;;;;;;0.95;0.95;;;23.80;99.90;;;;;;5020107;28;20286;-79
2023/07/19 04:55:51;;;;;;;0.20;0.20;;;23.80;99.90;;;;;;5020843;28;20623;-79
2023/07/19 04:58:17;;;;;;;0.10;0.10;;;23.90;99.90;;;;;;5020738;28;20107;-78
2023/07/19 05:00:43;;;;;;;4.30;4.03;;;23.90;99.90;;;;;;5021247;28;20029;-80
2023/07/19 05:03:09;;;;;;;0.10;0.10;;;23.80;99.90;;;;;;5021313;28;20656;-74
2023/07/19 05:05:35;;;;;;;1.42;1.10;;;23.80;99.90;;;;;;5020032;28;20053;-74
2023/07/19 05:08:04;;;;;;;1.40;1.35;;;23.90;99.90;;;;;;5023278;28;20017;-77
2023/07/19 05:10:40;;;;;;;2.83;2.60;;;24.00;99.90;;;;;;5040183;28;20021;-81
2023/07/19 05:13:05;;;;;;;0.05;0.05;;;24.10;99.90;;;;;;5040548;28;20086;-76
2023/07/19 05:15:32;;;;;;;3.47;3.17;;;24.20;99.90;;;;;;5040720;28;20088;-74
2023/07/19 05:17:57;;;;;;;0.10;0.10;;;24.30;99.90;;;;;;5040270;28;20090;-73
2023/07/19 05:20:24;;;;;;;2.22;2.08;;;24.30;99.90;;;;;;5040241;28;20608;-83
2023/07/19 05:22:50;;;;;;;3.83;1.27;;;24.40;99.90;;;;;;5039042;28;20017;-80
2023/07/19 05:25:15;;;;;;;0.10;0.10;;;24.50;99.90;;;;;;5042227;28;20086;-74
2023/07/19 05:27:41;;;;;;;0.63;0.63;;;24.50;99.90;;;;;;5041558;28;20109;-76
2023/07/19 05:30:08;;;;;;;0.63;0.63;;;24.60;99.90;;;;;;5041617;28;20021;-80
2023/07/19 05:32:33;;;;;;;0.13;0.13;;;24.50;99.90;;;;;;5040505;28;20045;-83
2023/07/19 05:34:59;;;;;;;0.30;0.30;;;24.60;99.90;;;;;;5044237;28;20013;-79
2023/07/19 05:37:25;;;;;;;0.10;0.10;;;24.70;99.90;;;;;;5042306;28;20713;-74
2023/07/19 05:39:50;;;;;;;0.13;0.13;;;24.60;99.90;;;;;;5041567;28;20021;-79
2023/07/19 05:42:16;;;;;;;0.10;0.10;;;24.70;99.90;;;;;;5039955;28;20111;-74
2023/07/19 05:44:42;;;;;;;0.10;0.10;;;24.70;99.90;;;;;;5040097;28;20565;-74
2023/07/19 05:47:08;;;;;;;0.10;0.10;;;24.70;99.90;;;;;;5040200;28;20036;-78
2023/07/19 05:49:33;;;;;;;0.10;0.10;;;24.80;99.90;;;;;;5040503;28;20013;-82
2023/07/19 05:51:59;;;;;;;0.10;0.10;;;24.80;99.90;;;;;;5040045;28;20028;-79
2023/07/19 05:54:25;;;;;;;0.10;0.10;;;24.80;99.90;;;;;;5039794;28;20060;-89
2023/07/19 05:56:51;;;;;;;0.38;0.38;;;24.80;99.90;;;;;;5038324;28;20036;-82
2023/07/19 05:59:17;;;;;;;0.20;0.20;;;24.90;99.90;;;;;;5039496;28;20154;-78
2023/07/19 06:01:43;;;;;;;0.60;0.60;;;24.80;99.90;;;;;;5040794;28;20075;-79
2023/07/19 06:04:10;;;;;;;0.10;0.10;;;24.80;99.90;;;;;;5041809;28;20025;-80
2023/07/19 06:06:36;;;;;;;0.20;0.20;;;24.50;99.90;;;;;;5044019;28;20116;-78
2023/07/19 06:09:05;;;;;;;0.50;0.50;;;24.50;99.90;;;;;;5040559;28;20056;-74
2023/07/19 06:11:35;;;;;;;0.10;0.10;;;24.60;99.90;;;;;;5039075;28;20094;-76
2023/07/19 06:14:02;;;;;;;1.48;0.85;;;24.80;99.90;;;;;;5040560;28;20533;-75
2023/07/19 06:16:28;;;;;;;6.93;2.08;;;24.90;99.90;;;;;;5039137;28;20017;-75
2023/07/19 06:18:54;;;;;;;0.10;0.10;;;24.90;99.90;;;;;;5037980;28;20036;-75
2023/07/19 06:21:20;;;;;;;0.10;0.10;;;25.00;99.90;;;;;;5039082;28;20025;-80
2023/07/19 06:23:46;;;;;;;0.10;0.10;;;26.90;99.90;;;;;;5039335;28;20097;-76
2023/07/19 06:26:11;;;;;;;0.73;0.73;;;25.00;99.90;;;;;;5038792;28;20033;-80
2023/07/19 06:28:37;;;;;;;0.28;0.28;;;25.10;99.90;;;;;;5039828;28;20016;-74
2023/07/19 06:31:03;;;;;;;0.10;0.10;;;24.40;99.90;;;;;;5039224;28;20025;-85
2023/07/19 06:33:29;;;;;;;0.10;0.10;;;24.70;99.90;;;;;;5030646;28;20060;-85
2023/07/19 06:35:55;;;;;;;0.10;0.10;;;24.90;99.90;;;;;;5040513;28;20089;-81
2023/07/19 06:38:21;;;;;;;0.50;0.45;;;24.90;99.90;;;;;;5041311;28;20021;-75
2023/07/19 06:40:47;;;;;;;2.05;1.95;;;24.80;99.90;;;;;;5039900;28;20697;-77
2023/07/19 06:43:13;;;;;;;0.10;0.10;;;24.70;99.90;;;;;;5037952;28;20028;-74
2023/07/19 06:45:39;;;;;;;1.88;1.65;;;24.90;99.90;;;;;;5039281;28;20112;-79
2023/07/19 06:48:05;;;;;;;0.10;0.10;;;25.10;99.90;;;;;;5038421;28;20117;-74
2023/07/19 06:50:31;;;;;;;0.73;0.65;;;25.00;99.90;;;;;;5037179;28;20017;-80
2023/07/19 06:52:57;;;;;;;0.20;0.20;;;24.90;99.90;;;;;;5038885;28;20032;-78
2023/07/19 06:55:23;;;;;;;0.40;0.35;;;24.90;99.90;;;;;;5038524;28;20638;-76
2023/07/19 06:57:49;;;;;;;0.10;0.10;;;25.10;99.90;;;;;;5038881;28;20037;-77
2023/07/19 07:00:15;;;;;;;2.60;0.95;;;25.30;99.90;;;;;;5038371;28;20040;-74
2023/07/19 07:02:41;;;;;;;0.35;0.35;;;25.30;99.90;;;;;;5038481;28;20100;-80
2023/07/19 07:05:10;;;;;;;0.10;0.10;;;25.20;99.90;;;;;;5038610;28;20142;-82
2023/07/19 07:07:37;;;;;;;3.65;3.40;;;25.40;99.90;;;;;;5038349;28;20021;-73
2023/07/19 07:10:05;;;;;;;0.30;0.30;;;25.50;99.90;;;;;;5037229;28;20010;-77
2023/07/19 07:12:31;;;;;;;0.08;0.08;;;25.40;99.90;;;;;;5041439;28;20059;-79
2023/07/19 07:14:57;;;;;;;0.45;0.45;;;25.60;99.90;;;;;;5036557;28;20221;-85
2023/07/19 07:17:22;;;;;;;0.10;0.10;;;25.70;99.90;;;;;;5038233;28;20647;-82
2023/07/19 07:19:48;;;;;;;0.20;0.20;;;25.90;99.90;;;;;;5037940;28;20021;-84
2023/07/19 07:22:14;;;;;;;0.10;0.10;;;25.90;99.90;;;;;;5039051;28;20025;-79
2023/07/19 07:24:40;;;;;;;0.10;0.10;;;25.90;99.90;;;;;;5037192;28;20021;-75
2023/07/19 07:27:07;;;;;;;0.10;0.10;;;26.00;99.90;;;;;;5038958;28;20041;-74
2023/07/19 07:29:33;;;;;;;0.10;0.10;;;26.00;99.90;;;;;;5036827;28;20069;-78
2023/07/19 07:31:58;;;;;;;1.08;1.02;;;26.10;99.90;;;;;;5037735;28;20017;-85
2023/07/19 07:34:24;;;;;;;0.10;0.10;;;26.10;99.90;;;;;;5037712;28;20033;-76
2023/07/19 07:36:50;;;;;;;1.02;1.00;;;26.30;99.90;;;;;;5038397;28;20025;-78
2023/07/19 07:39:16;;;;;;;0.15;0.13;;;26.20;99.90;;;;;;5038315;28;20017;-75
2023/07/19 07:41:41;;;;;;;0.28;0.28;;;26.10;99.90;;;;;;5037913;28;20575;-78
2023/07/19 07:44:07;;;;;;;2.53;0.60;;;26.30;99.90;;;;;;5037727;28;20016;-85
2023/07/19 07:46:33;;;;;;;0.15;0.15;;;26.30;99.90;;;;;;5036886;28;20067;-81
2023/07/19 07:48:59;;;;;;;0.20;0.20;;;26.50;99.90;;;;;;5028586;28;20021;-83
2023/07/19 07:51:31;;;;;;;0.10;0.10;;;26.70;99.90;;;;;;5021997;28;20026;-80
2023/07/19 07:53:56;;;;;;;0.20;0.20;;;27.00;99.90;;;;;;5020339;28;20808;-76
2023/07/19 07:56:24;;;;;;;0.60;0.60;;;26.70;99.90;;;;;;5021639;28;20059;-75
2023/07/19 07:58:49;;;;;;;0.10;0.10;;;28.10;99.90;;;;;;5032333;28;20037;-83
2023/07/19 08:01:15;;;;;;;0.00;0.00;;;26.40;99.90;;;;;;5028211;28;20036;-81
2023/07/19 08:03:41;;;;;;;0.20;0.20;;;26.50;99.90;;;;;;5027995;28;20547;-74
2023/07/19 08:06:07;;;;;;;0.10;0.10;;;26.70;99.90;;;;;;5033827;28;20040;-83
2023/07/19 08:08:32;;;;;;;1.90;0.90;;;26.80;99.90;;;;;;5023744;28;20646;-74
2023/07/19 08:11:02;;;;;;;0.30;0.22;;;27.60;99.90;;;;;;5029657;28;20789;-82
2023/07/19 08:13:28;;;;;;;0.08;0.08;;;27.20;99.90;;;;;;5025224;28;20028;-83
2023/07/19 08:15:54;;;;;;;0.20;0.20;;;27.40;99.90;;;;;;5033249;28;20022;-81
2023/07/19 08:18:19;;;;;;;0.10;0.10;;;27.60;99.90;;;;;;5022487;28;20028;-82
2023/07/19 08:20:45;;;;;;;0.00;0.00;;;27.80;99.90;;;;;;5066584;28;20609;-80
2023/07/19 08:23:11;;;;;;;0.10;0.10;;;28.00;99.90;;;;;;5042612;28;20013;-79
2023/07/19 08:25:37;;;;;;;0.00;0.00;;;28.10;99.90;;;;;;5045846;28;20029;-76
2023/07/19 08:28:02;;;;;;;0.20;0.20;;;28.40;99.90;;;;;;5049074;28;20051;-84
2023/07/19 08:30:28;;;;;;;0.17;0.17;;;28.40;99.90;;;;;;5039202;28;20033;-78
2023/07/19 08:32:54;;;;;;;0.03;0.03;;;28.30;99.90;;;;;;5034624;28;20114;-77
2023/07/19 08:35:20;;;;;;;0.28;0.28;;;28.30;99.90;;;;;;5028924;28;20070;-77
2023/07/19 08:37:46;;;;;;;0.10;0.10;;;28.70;99.90;;;;;;5024585;28;20153;-74
2023/07/19 08:40:14;;;;;;;0.00;0.00;;;28.70;99.20;;;;;;5023008;28;20606;-85
2023/07/19 08:42:41;;;;;;;0.08;0.08;;;28.80;99.30;;;;;;5033747;28;20048;-88
2023/07/19 08:45:08;;;;;;;0.00;0.00;;;28.90;98.80;;;;;;5039262;28;20247;-86
2023/07/19 08:47:37;;;;;;;0.10;0.10;;;29.00;97.80;;;;;;5041258;28;20028;-76
2023/07/19 08:50:07;;;;;;;1.75;0.75;;;29.10;98.40;;;;;;5040805;28;20021;-78
2023/07/19 08:52:34;;;;;;;2.10;0.43;;;29.20;98.00;;;;;;5043016;28;20017;-80
2023/07/19 08:55:00;;;;;;;0.05;0.05;;;29.30;97.40;;;;;;5041037;28;20100;-74
2023/07/19 08:57:27;;;;;;;0.20;0.20;;;29.40;96.70;;;;;;5030987;28;20751;-79
2023/07/19 08:59:52;;;;;;;0.10;0.10;;;29.60;96.70;;;;;;5034010;28;20895;-75
2023/07/19 09:02:18;;;;;;;0.20;0.20;;;29.70;96.10;;;;;;5026406;28;20021;-75
2023/07/19 09:05:03;;;;;;;0.20;0.20;;;29.70;96.00;;;;;;5029442;28;20659;-78
2023/07/19 09:07:29;;;;;;;0.00;0.00;;;29.60;96.50;;;;;;5031695;28;20538;-82
2023/07/19 09:09:55;;;;;;;0.10;0.10;;;29.90;96.30;;;;;;5030529;28;20097;-83
2023/07/19 09:12:21;;;;;;;0.20;0.20;;;30.00;96.20;;;;;;5040679;28;20028;-79
2023/07/19 09:14:46;;;;;;;0.15;0.15;;;30.20;95.90;;;;;;5034134;28;20064;-79
2023/07/19 09:17:12;;;;;;;0.20;0.20;;;30.30;95.30;;;;;;5027772;28;20738;-76
2023/07/19 09:19:42;;;;;;;0.63;0.35;;;30.40;95.30;;;;;;5034400;28;20100;-88
2023/07/19 09:22:09;;;;;;;15.43;0.95;;;30.40;94.80;;;;;;5031948;28;20044;-79
2023/07/19 09:24:35;;;;;;;0.10;0.10;;;30.40;95.00;;;;;;5032178;28;20017;-77
2023/07/19 09:27:01;;;;;;;0.00;0.00;;;30.50;94.30;;;;;;5022239;28;20082;-81
2023/07/19 09:29:30;;;;;;;0.10;0.10;;;30.60;94.30;;;;;;5020937;28;20079;-78
2023/07/19 09:32:01;;;;;;;0.10;0.10;;;30.80;93.80;;;;;;5023234;28;20431;-84
2023/07/19 09:34:35;;;;;;;0.85;0.85;;;30.90;93.90;;;;;;5021918;28;20083;-86
2023/07/19 09:37:02;;;;;;;3.72;1.40;;;30.90;93.60;;;;;;5020828;28;20027;-79
2023/07/19 09:39:29;;;;;;;0.10;0.10;;;31.10;93.30;;;;;;5021027;28;20025;-85
2023/07/19 09:41:59;;;;;;;0.10;0.10;;;31.20;93.10;;;;;;5038102;28;20017;-79
2023/07/19 09:44:26;;;;;;;1.10;0.95;;;31.00;93.10;;;;;;5039966;28;20104;-82
2023/07/19 09:46:53;;;;;;;0.20;0.20;;;31.30;93.20;;;;;;5040087;28;20723;-78
2023/07/19 09:49:19;;;;;;;0.22;0.22;;;31.50;92.50;;;;;;5040909;28;20047;-86
2023/07/19 09:51:46;;;;;;;0.10;0.10;;;31.70;92.20;;;;;;5040626;28;20095;-74
2023/07/19 09:54:13;;;;;;;0.47;0.47;;;31.60;91.80;;;;;;5040655;28;20020;-85
2023/07/19 09:56:40;;;;;;;0.68;0.40;;;31.60;92.10;;;;;;5039876;28;20434;-75
2023/07/19 09:59:17;;;;;;;0.40;0.40;;;31.80;92.00;;;;;;5040114;28;20041;-84
2023/07/19 10:01:43;;;;;;;0.95;0.95;;;31.80;91.50;;;;;;5038383;28;20275;-78
2023/07/19 10:04:25;;;;;;;0.00;0.00;;;32.00;90.90;;;;;;5037891;28;20017;-85
2023/07/19 10:07:07;;;;;;;0.52;0.52;;;32.00;91.40;;;;;;5039734;28;20053;-81
2023/07/19 10:09:37;;;;;;;0.32;0.30;;;32.10;90.90;;;;;;5039226;28;20016;-75
2023/07/19 10:12:09;;;;;;;0.10;0.10;;;32.10;90.80;;;;;;5041087;28;20021;-79
2023/07/19 10:14:35;;;;;;;0.15;0.15;;;32.10;91.10;;;;;;5041300;28;20013;-86
2023/07/19 10:17:06;;;;;;;0.20;0.20;;;32.10;91.00;;;;;;5047353;28;20051;-80
2023/07/19 10:19:31;;;;;;;0.10;0.10;;;32.20;91.00;;;;;;5069662;28;20082;-76
2023/07/19 10:22:05;;;;;;;0.20;0.20;;;32.20;91.20;;;;;;5061147;28;20081;-80
2023/07/19 10:24:36;;;;;;;0.20;0.20;;;32.40;91.00;;;;;;5061357;28;20024;-81
2023/07/19 10:27:07;;;;;;;0.10;0.10;;;32.50;90.90;;;;;;5032787;28;20269;-76
2023/07/19 10:29:43;;;;;;;0.22;0.22;;;32.50;91.30;;;;;;5021750;28;20092;-73
2023/07/19 10:32:09;;;;;;;1.02;0.65;;;32.90;91.20;;;;;;5031931;28;20029;-79
2023/07/19 10:34:36;;;;;;;2.60;1.00;;;31.80;90.40;;;;;;5029539;28;20245;-83
2023/07/19 10:37:06;;;;;;;0.20;0.20;;;32.90;91.00;;;;;;5025799;28;20100;-87
2023/07/19 10:39:33;;;;;;;0.55;0.55;;;33.00;91.00;;;;;;5020313;28;20064;-82
2023/07/19 10:41:59;;;;;;;0.65;0.22;;;33.10;91.50;;;;;;5030188;28;20379;-82
2023/07/19 10:44:26;;;;;;;3.15;1.08;;;33.20;91.80;;;;;;5046560;28;20094;-76
2023/07/19 10:46:56;;;;;;;0.10;0.10;;;33.60;91.30;;;;;;5021343;28;20117;-77
2023/07/19 10:49:23;;;;;;;0.30;0.30;;;33.00;90.80;;;;;;5037152;28;20674;-85
2023/07/19 10:51:56;;;;;;;0.22;0.22;;;33.80;90.90;;;;;;5041980;28;20118;-78
2023/07/19 10:54:23;;;;;;;0.10;0.10;;;33.90;90.70;;;;;;5039646;28;20013;-75
2023/07/19 10:56:50;;;;;;;0.10;0.10;;;34.10;90.00;;;;;;5039673;28;20028;-85
2023/07/19 10:59:16;;;;;;;0.13;0.13;;;32.30;86.30;;;;;;5036862;28;20069;-76
2023/07/19 11:01:43;;;;;;;0.63;0.63;;;34.30;87.80;;;;;;5037554;28;20037;-84
2023/07/19 11:04:09;;;;;;;1.85;0.40;;;34.60;86.80;;;;;;5039544;28;20021;-82
2023/07/19 11:06:37;;;;;;;0.47;0.47;;;34.70;86.70;;;;;;5039259;28;20028;-83
2023/07/19 11:09:04;;;;;;;2.10;1.10;;;35.10;86.20;;;;;;5040164;28;20017;-78
2023/07/19 11:11:32;;;;;;;0.15;0.15;;;34.90;85.30;;;;;;5039875;28;20060;-75
2023/07/19 11:13:57;;;;;;;0.10;0.10;;;34.90;83.00;;;;;;5039960;28;20017;-80
2023/07/19 11:16:26;;;;;;;0.10;0.10;;;35.20;82.70;;;;;;5038339;28;20025;-78
2023/07/19 11:18:53;;;;;;;0.38;0.20;;;35.20;82.80;;;;;;5039316;28;20017;-74
2023/07/19 11:21:27;;;;;;;0.28;0.28;;;35.20;83.20;;;;;;5038122;28;20021;-75
2023/07/19 11:23:53;;;;;;;0.30;0.30;;;35.50;81.40;;;;;;5038067;28;20025;-73
2023/07/19 11:26:19;;;;;;;0.32;0.22;;;35.90;78.70;;;;;;5039798;28;20044;-81
2023/07/19 11:28:56;;;;;;;0.95;0.88;;;36.00;77.30;;;;;;5038989;28;20123;-82
2023/07/19 11:31:33;;;;;;;2.67;1.27;;;36.40;77.80;;;;;;5053301;28;20037;-88
2023/07/19 11:34:10;;;;;;;1.25;1.20;;;36.50;75.50;;;;;;5019439;28;20054;-85
2023/07/19 11:36:43;;;;;;;0.17;0.17;;;36.50;76.60;;;;;;5019345;28;20892;-80
2023/07/19 11:39:21;;;;;;;0.75;0.60;;;36.70;79.00;;;;;;5022190;28;20276;-77
2023/07/19 11:41:48;;;;;;;1.65;0.90;;;37.00;80.90;;;;;;5039940;28;20017;-85
2023/07/19 11:44:19;;;;;;;5.07;3.13;;;37.20;81.30;;;;;;5039297;28;20001;-86
2023/07/19 11:46:46;;;;;;;1.02;0.90;;;37.30;79.90;;;;;;5024930;28;20040;-86
2023/07/19 11:49:11;;;;;;;0.22;0.22;;;37.80;75.40;;;;;;5038808;28;20009;-80
2023/07/19 11:51:37;;;;;;;0.63;0.47;;;37.90;75.00;;;;;;5036880;28;20051;-86
2023/07/19 11:54:03;;;;;;;0.85;0.85;;;38.00;75.20;;;;;;5038529;28;20017;-84
2023/07/19 11:56:30;;;;;;;0.77;0.52;;;38.60;74.50;;;;;;5039613;28;20017;-74
2023/07/19 11:58:57;;;;;;;0.65;0.47;;;39.30;71.70;;;;;;5042856;28;20099;-75
2023/07/19 12:01:26;;;;;;;0.70;0.63;;;39.80;69.80;;;;;;5042221;28;20108;-81
2023/07/19 12:03:53;;;;;;;1.58;1.20;;;40.00;68.50;;;;;;5042126;28;20074;-78
2023/07/19 12:06:18;;;;;;;3.15;2.90;;;40.60;67.80;;;;;;5041788;28;20044;-82
2023/07/19 12:08:45;;;;;;;0.60;0.55;;;41.10;65.90;;;;;;5042964;28;20017;-80
2023/07/19 12:11:11;;;;;;;0.28;0.28;;;41.20;65.50;;;;;;5042893;28;20025;-79
2023/07/19 12:13:37;;;;;;;0.20;0.20;;;41.40;65.50;;;;;;5040307;28;20103;-84
2023/07/19 12:16:03;;;;;;;0.85;0.50;;;41.90;65.50;;;;;;5022162;28;20048;-90
2023/07/19 12:18:32;;;;;;;0.77;0.50;;;41.90;63.40;;;;;;5024768;28;20013;-77
2023/07/19 12:20:58;;;;;;;0.40;0.40;;;41.80;62.20;;;;;;5033052;28;20078;-77
2023/07/19 12:23:24;;;;;;;0.22;0.22;;;41.90;61.60;;;;;;5027108;28;20025;-78
2023/07/19 12:25:50;;;;;;;0.68;0.68;;;41.80;59.60;;;;;;5031214;28;20029;-77
2023/07/19 12:28:16;;;;;;;0.20;0.20;;;41.90;60.80;;;;;;5027240;28;20035;-78
2023/07/19 12:30:42;;;;;;;2.60;0.55;;;42.00;60.70;;;;;;5031438;28;20071;-79
2023/07/19 12:33:08;;;;;;;0.90;0.45;;;42.20;60.20;;;;;;5033399;28;20036;-77
2023/07/19 12:35:36;;;;;;;1.27;0.70;;;43.70;58.90;;;;;;5032808;28;20033;-78
2023/07/19 12:38:10;;;;;;;0.85;0.65;;;42.30;58.40;;;;;;5028290;28;20111;-80
2023/07/19 12:40:35;;;;;;;0.10;0.10;;;42.50;59.60;;;;;;5036128;28;20017;-81
2023/07/19 12:43:01;;;;;;;2.22;1.17;;;42.70;57.90;;;;;;5034943;28;20028;-75
2023/07/19 12:45:27;;;;;;;0.63;0.60;;;42.80;57.90;;;;;;5032766;28;20121;-82